createdAt,value
2018-08-16T00:01:25.454Z,5.67
2018-08-16T00:03:30.016Z,5.27
2018-08-16T00:05:34.645Z,5.63
2018-08-16T00:07:42.348Z,5.63
2018-08-16T00:09:49.010Z,5.87
2018-08-16T00:11:57.891Z,5.50
2018-08-16T00:14:05.385Z,6.80
2018-08-16T00:16:11.430Z,6.13
2018-08-16T00:18:16.352Z,6.37
2018-08-16T00:20:25.873Z,6.20
2018-08-16T00:22:30.408Z,6.17
2018-08-16T00:24:36.041Z,5.97
2018-08-16T00:26:40.818Z,5.73
2018-08-16T00:28:45.314Z,6.60
2018-08-16T00:30:50.752Z,6.00
2018-08-16T00:32:57.628Z,5.90
2018-08-16T00:35:02.719Z,6.13
2018-08-16T00:37:06.763Z,6.20
2018-08-16T00:39:11.300Z,6.60
2018-08-16T00:41:15.210Z,6.10
2018-08-16T00:43:19.917Z,6.60
2018-08-16T00:45:26.805Z,5.83
2018-08-16T00:47:32.065Z,6.13
2018-08-16T00:49:35.958Z,5.90
2018-08-16T00:51:41.536Z,5.77
2018-08-16T00:53:52.064Z,6.13
2018-08-16T00:55:57.927Z,7.00
2018-08-16T00:58:03.654Z,5.93
2018-08-16T01:00:13.841Z,7.00
2018-08-16T01:02:19.738Z,6.00
2018-08-16T01:04:25.233Z,5.73
2018-08-16T01:06:32.407Z,6.07
2018-08-16T01:08:37.661Z,6.07
2018-08-16T01:10:47.136Z,5.90
2018-08-16T01:12:52.520Z,6.60
2018-08-16T01:14:57.065Z,6.20
2018-08-16T01:17:03.126Z,6.87
2018-08-16T01:19:08.917Z,6.60
2018-08-16T01:21:14.876Z,6.27
2018-08-16T01:23:21.329Z,6.77
2018-08-16T01:25:29.127Z,7.00
2018-08-16T01:27:33.168Z,7.03
2018-08-16T01:34:58.045Z,7.13
2018-08-16T01:37:06.144Z,7.50
2018-08-16T01:39:11.487Z,7.47
2018-08-16T01:41:15.792Z,7.57
2018-08-16T01:43:22.388Z,7.30
2018-08-16T01:45:28.200Z,7.63
2018-08-16T01:47:33.385Z,8.13
2018-08-16T01:49:39.099Z,7.20
2018-08-16T01:51:43.803Z,6.93
2018-08-16T01:53:47.772Z,7.97
2018-08-16T01:55:51.968Z,7.63
2018-08-16T01:57:56.304Z,7.83
2018-08-16T02:00:02.957Z,8.07
2018-08-16T02:02:09.562Z,8.47
2018-08-16T02:04:13.834Z,8.13
2018-08-16T02:06:18.697Z,8.83
2018-08-16T02:08:25.866Z,9.50
2018-08-16T02:10:40.501Z,9.60
2018-08-16T02:12:44.439Z,9.27
2018-08-16T02:14:49.589Z,9.77
2018-08-16T02:16:53.590Z,8.53
2018-08-16T02:18:57.663Z,8.43
2018-08-16T02:21:06.340Z,8.80
2018-08-16T02:23:10.527Z,9.00
2018-08-16T02:25:18.377Z,8.83
2018-08-16T02:27:22.306Z,8.73
2018-08-16T02:29:32.014Z,9.43
2018-08-16T02:31:36.048Z,9.23
2018-08-16T02:33:40.398Z,8.73
2018-08-16T02:35:46.643Z,8.33
2018-08-16T02:37:51.063Z,8.93
2018-08-16T02:39:56.747Z,7.93
2018-08-16T02:42:02.785Z,8.60
2018-08-16T02:44:08.602Z,8.80
2018-08-16T02:46:14.554Z,9.17
2018-08-16T02:48:19.447Z,8.40
2018-08-16T02:50:25.212Z,7.83
2018-08-16T02:52:30.220Z,8.53
2018-08-16T02:54:34.952Z,8.57
2018-08-16T02:56:38.819Z,8.17
2018-08-16T02:58:46.942Z,8.83
2018-08-16T03:00:50.776Z,9.10
2018-08-16T03:02:54.581Z,8.50
2018-08-16T03:04:58.668Z,8.90
2018-08-16T03:07:03.765Z,8.47
2018-08-16T03:09:09.460Z,8.40
2018-08-16T03:11:13.994Z,9.47
2018-08-16T03:13:19.130Z,8.43
2018-08-16T03:15:25.718Z,9.27
2018-08-16T03:17:29.587Z,8.97
2018-08-16T03:19:33.437Z,9.40
2018-08-16T03:21:39.530Z,9.83
2018-08-16T03:23:49.452Z,9.03
2018-08-16T03:25:53.402Z,8.63
2018-08-16T03:27:58.157Z,9.17
2018-08-16T03:30:02.904Z,8.30
2018-08-16T03:32:13.600Z,8.97
2018-08-16T03:34:17.513Z,8.87
2018-08-16T03:36:22.748Z,8.93
2018-08-16T03:38:26.567Z,8.50
2018-08-16T03:40:31.017Z,8.97
2018-08-16T03:42:34.979Z,9.10
2018-08-16T03:44:38.874Z,9.80
2018-08-16T03:46:51.010Z,10.00
2018-08-16T03:48:55.904Z,9.53
2018-08-16T03:50:59.946Z,9.90
2018-08-16T03:53:07.325Z,9.70
2018-08-16T03:55:13.336Z,9.80
2018-08-16T03:57:17.440Z,9.67
2018-08-16T03:59:21.448Z,9.20
2018-08-16T04:01:25.706Z,10.50
2018-08-16T04:03:34.405Z,10.20
2018-08-16T04:05:38.855Z,10.10
2018-08-16T04:07:44.269Z,9.70
2018-08-16T04:09:49.275Z,10.37
2018-08-16T04:11:53.590Z,9.20
2018-08-16T04:13:58.169Z,9.87
2018-08-16T04:16:02.831Z,9.50
2018-08-16T04:18:08.135Z,9.37
2018-08-16T04:20:12.857Z,9.97
2018-08-16T04:22:17.628Z,8.50
2018-08-16T04:24:23.104Z,9.23
2018-08-16T04:26:28.496Z,9.27
2018-08-16T04:28:33.768Z,9.30
2018-08-16T04:30:39.141Z,9.70
2018-08-16T04:32:45.512Z,10.90
2018-08-16T04:34:50.356Z,9.30
2018-08-16T04:36:55.282Z,9.67
2018-08-16T04:38:59.409Z,8.70
2018-08-16T04:41:04.740Z,9.30
2018-08-16T04:43:08.870Z,9.23
2018-08-16T04:45:14.312Z,8.77
2018-08-16T04:47:19.098Z,9.67
2018-08-16T04:49:28.079Z,9.73
2018-08-16T04:51:34.981Z,9.30
2018-08-16T04:53:39.097Z,8.53
2018-08-16T04:55:45.191Z,9.57
2018-08-16T04:57:52.566Z,9.33
2018-08-16T05:00:03.233Z,9.27
2018-08-16T05:02:10.149Z,8.37
2018-08-16T05:04:18.667Z,8.63
2018-08-16T05:06:23.771Z,9.30
2018-08-16T05:08:36.612Z,8.30
2018-08-16T05:10:48.215Z,9.07
2018-08-16T05:12:58.858Z,9.30
2018-08-16T05:15:07.916Z,8.30
2018-08-16T05:17:22.567Z,9.03
2018-08-16T05:19:27.361Z,8.80
2018-08-16T05:21:32.803Z,8.43
2018-08-16T05:23:37.590Z,9.03
2018-08-16T05:25:42.613Z,10.20
2018-08-16T05:27:47.618Z,9.47
2018-08-16T05:29:53.815Z,9.70
2018-08-16T05:34:16.054Z,9.57
2018-08-16T05:36:21.916Z,10.17
2018-08-16T05:38:32.186Z,9.33
2018-08-16T05:40:43.727Z,10.00
2018-08-16T05:42:51.548Z,9.70
2018-08-16T05:44:59.686Z,10.23
2018-08-16T05:47:08.150Z,9.60
2018-08-16T05:49:31.686Z,9.87
2018-08-16T05:51:42.485Z,9.87
2018-08-16T05:53:46.821Z,9.57
2018-08-16T05:55:52.299Z,10.33
2018-08-16T05:58:01.594Z,11.40
2018-08-16T06:00:21.519Z,10.40
2018-08-16T06:02:31.706Z,9.27
2018-08-16T06:04:37.229Z,9.80
2018-08-16T06:06:50.610Z,9.37
2018-08-16T06:09:00.757Z,10.07
2018-08-16T06:11:14.833Z,9.83
2018-08-16T06:13:22.866Z,9.27
2018-08-16T06:15:30.771Z,9.83
2018-08-16T06:17:36.103Z,10.20
2018-08-16T06:19:41.900Z,10.70
2018-08-16T06:21:48.625Z,9.70
2018-08-16T06:23:56.395Z,10.17
2018-08-16T06:26:02.148Z,11.10
2018-08-16T06:28:11.950Z,10.93
2018-08-16T06:30:48.189Z,11.17
2018-08-16T06:32:55.170Z,12.17
2018-08-16T06:35:05.824Z,11.00
2018-08-16T06:37:16.884Z,11.27
2018-08-16T06:39:22.324Z,10.30
2018-08-16T06:41:30.476Z,11.93
2018-08-16T06:43:37.500Z,12.37
2018-08-16T06:45:46.251Z,10.00
2018-08-16T06:47:59.655Z,10.23
2018-08-16T06:50:16.369Z,9.93
2018-08-16T06:52:28.797Z,9.73
2018-08-16T06:54:42.124Z,9.47
2018-08-16T06:56:47.946Z,9.00
2018-08-16T06:58:55.447Z,8.30
2018-08-16T07:01:15.537Z,9.40
2018-08-16T07:03:35.984Z,8.57
2018-08-16T07:05:52.060Z,8.73
2018-08-16T07:07:57.411Z,9.77
2018-08-16T07:10:08.683Z,9.37
2018-08-16T07:12:15.648Z,8.53
2018-08-16T07:14:23.185Z,8.93
2018-08-16T07:16:30.577Z,8.67
2018-08-16T07:18:34.881Z,8.53
2018-08-16T07:20:41.504Z,8.50
2018-08-16T07:22:50.143Z,9.07
2018-08-16T07:25:00.060Z,8.60
2018-08-16T07:27:14.187Z,8.20
2018-08-16T07:29:20.886Z,8.30
2018-08-16T07:31:34.742Z,8.33
2018-08-16T07:33:40.611Z,8.67
2018-08-16T07:35:45.180Z,7.73
2018-08-16T07:37:52.025Z,7.87
2018-08-16T07:40:06.619Z,8.47
2018-08-16T07:42:18.283Z,7.27
2018-08-16T07:44:22.926Z,8.20
2018-08-16T07:46:47.289Z,7.73
2018-08-16T07:48:55.414Z,7.90
2018-08-16T07:51:20.142Z,7.13
2018-08-16T07:53:29.400Z,7.45
2018-08-16T07:55:35.291Z,7.03
2018-08-16T07:57:41.090Z,7.37
2018-08-16T07:59:47.513Z,7.43
2018-08-16T08:01:55.710Z,7.50
2018-08-16T08:04:00.653Z,6.90
2018-08-16T08:06:16.032Z,6.40
2018-08-16T08:10:38.771Z,7.10
2018-08-16T08:12:46.190Z,6.72
2018-08-16T08:14:57.390Z,6.15
2018-08-16T08:17:08.751Z,6.30
2018-08-16T08:19:21.007Z,6.95
2018-08-16T08:21:30.189Z,6.70
2018-08-16T08:23:47.816Z,6.70
2018-08-16T08:26:05.791Z,5.72
2018-08-16T08:28:20.879Z,6.92
2018-08-16T08:30:39.422Z,7.35
2018-08-16T08:32:51.694Z,7.08
2018-08-16T08:35:04.234Z,7.75
2018-08-16T08:37:20.603Z,8.85
2018-08-16T08:39:32.533Z,6.20
2018-08-16T08:41:50.632Z,7.35
2018-08-16T08:44:10.926Z,7.87
2018-08-16T08:46:17.524Z,7.97
2018-08-16T08:48:41.957Z,7.12
2018-08-16T08:50:49.123Z,6.37
2018-08-16T08:52:54.984Z,7.10
2018-08-16T08:55:11.465Z,6.47
2018-08-16T08:57:30.222Z,6.58
2018-08-16T08:59:36.496Z,7.87
2018-08-16T09:01:42.467Z,7.37
2018-08-16T09:03:54.044Z,7.10
2018-08-16T09:06:04.625Z,6.78
2018-08-16T09:08:15.496Z,6.83
2018-08-16T09:10:57.466Z,7.47
2018-08-16T09:13:15.951Z,6.03
2018-08-16T09:15:44.619Z,7.30
2018-08-16T09:17:50.530Z,5.92
2018-08-16T09:19:57.582Z,6.62
2018-08-16T09:22:04.166Z,5.72
2018-08-16T09:24:20.790Z,4.72
2018-08-16T09:26:35.194Z,5.70
2018-08-16T09:28:54.391Z,5.20
2018-08-16T09:31:17.426Z,6.05
2018-08-16T09:33:37.919Z,5.60
2018-08-16T09:35:51.349Z,6.08
2018-08-16T09:38:02.919Z,6.42
2018-08-16T09:40:20.832Z,5.00
2018-08-16T09:42:30.419Z,5.87
2018-08-16T09:44:38.238Z,4.55
2018-08-16T09:47:12.449Z,5.55
2018-08-16T09:49:20.974Z,5.20
2018-08-16T09:51:25.330Z,5.08
2018-08-16T09:53:31.166Z,4.67
2018-08-16T09:55:42.256Z,6.17
2018-08-16T09:57:46.467Z,5.83
2018-08-16T10:00:04.806Z,5.50
2018-08-16T10:02:30.061Z,5.37
2018-08-16T10:04:36.977Z,5.65
2018-08-16T10:06:58.248Z,4.30
2018-08-16T10:09:13.239Z,4.42
2018-08-16T10:11:30.153Z,4.60
2018-08-16T10:13:40.865Z,4.40
2018-08-16T10:15:52.879Z,4.00
2018-08-16T10:18:11.133Z,3.77
2018-08-16T10:20:22.729Z,3.92
2018-08-16T10:22:33.680Z,3.85
2018-08-16T10:24:46.495Z,3.92
2018-08-16T10:27:02.322Z,4.70
2018-08-16T10:29:16.835Z,4.28
2018-08-16T10:31:46.648Z,3.83
2018-08-16T10:33:54.875Z,4.53
2018-08-16T10:36:02.669Z,4.80
2018-08-16T10:38:11.354Z,4.60
2018-08-16T10:40:25.859Z,4.47
2018-08-16T10:42:36.528Z,4.00
2018-08-16T10:44:44.018Z,4.87
2018-08-16T10:46:58.676Z,4.80
2018-08-16T10:49:03.887Z,4.00
2018-08-16T10:51:09.986Z,4.53
2018-08-16T10:53:16.652Z,3.70
2018-08-16T10:55:25.921Z,3.87
2018-08-16T10:57:39.750Z,3.85
2018-08-16T11:00:37.542Z,4.00
2018-08-16T11:02:50.254Z,3.92
2018-08-16T11:04:57.448Z,4.20
2018-08-16T11:07:06.626Z,4.22
2018-08-16T11:09:11.576Z,4.20
2018-08-16T11:11:16.259Z,3.42
2018-08-16T11:13:20.416Z,3.65
2018-08-16T11:15:27.413Z,3.47
2018-08-16T11:17:33.166Z,3.80
2018-08-16T11:19:38.316Z,4.40
2018-08-16T11:21:46.594Z,3.17
2018-08-16T11:23:53.962Z,3.40
2018-08-16T11:25:58.676Z,3.52
2018-08-16T11:28:02.573Z,4.12
2018-08-16T11:30:09.963Z,3.08
2018-08-16T11:32:15.226Z,3.62
2018-08-16T11:34:19.099Z,3.37
2018-08-16T11:36:23.623Z,3.25
2018-08-16T11:38:35.166Z,3.75
2018-08-16T11:40:39.200Z,3.58
2018-08-16T11:42:43.827Z,3.17
2018-08-16T11:44:51.507Z,3.33
2018-08-16T11:46:56.347Z,3.08
2018-08-16T11:49:01.079Z,3.30
2018-08-16T11:51:05.353Z,3.20
2018-08-16T11:53:09.209Z,3.27
2018-08-16T11:55:14.736Z,3.12
2018-08-16T11:57:20.009Z,3.22
2018-08-16T11:59:24.440Z,3.55
2018-08-16T12:01:28.282Z,3.33
2018-08-16T12:03:32.330Z,3.60
2018-08-16T12:05:36.612Z,3.60
2018-08-16T12:07:41.390Z,3.40
2018-08-16T12:09:45.761Z,2.87
2018-08-16T12:11:49.818Z,3.40
2018-08-16T12:13:56.355Z,3.10
2018-08-16T12:16:02.929Z,3.08
2018-08-16T12:18:10.582Z,3.47
2018-08-16T12:22:36.136Z,3.27
2018-08-16T12:24:40.827Z,2.83
2018-08-16T12:26:48.518Z,3.20
2018-08-16T12:28:56.402Z,3.25
2018-08-16T12:31:03.242Z,3.30
2018-08-16T12:33:09.596Z,3.55
2018-08-16T12:35:16.306Z,2.87
2018-08-16T12:37:20.464Z,3.00
2018-08-16T12:39:24.396Z,2.77
2018-08-16T12:41:30.791Z,3.40
2018-08-16T12:43:36.446Z,2.95
2018-08-16T12:45:40.422Z,2.85
2018-08-16T12:47:46.619Z,3.30
2018-08-16T12:49:52.030Z,3.30
2018-08-16T12:55:06.108Z,3.00
2018-08-16T12:57:10.691Z,3.05
2018-08-16T12:59:16.025Z,2.98
2018-08-16T13:01:26.825Z,2.75
2018-08-16T13:05:49.250Z,3.37
2018-08-16T13:07:55.739Z,3.02
2018-08-16T13:10:01.402Z,3.55
2018-08-16T13:12:07.113Z,3.20
2018-08-16T13:14:12.223Z,2.98
2018-08-16T13:16:18.833Z,3.52
2018-08-16T13:18:26.749Z,2.85
2018-08-16T13:20:34.074Z,3.70
2018-08-16T13:22:41.548Z,2.95
2018-08-16T13:24:48.435Z,3.20
2018-08-16T13:26:55.352Z,2.77
2018-08-16T13:29:01.946Z,3.22
2018-08-16T13:31:05.971Z,2.98
2018-08-16T13:33:12.904Z,3.27
2018-08-16T13:42:25.179Z,3.17
2018-08-16T13:44:29.955Z,3.45
2018-08-16T13:46:34.041Z,3.77
2018-08-16T13:48:39.987Z,3.35
2018-08-16T13:50:47.392Z,3.35
2018-08-16T13:52:53.096Z,3.20
2018-08-16T13:55:01.155Z,3.20
2018-08-16T13:57:07.168Z,3.50
2018-08-16T13:59:11.497Z,3.15
2018-08-16T14:01:15.754Z,3.17
2018-08-16T14:03:20.278Z,3.10
2018-08-16T14:05:24.707Z,2.92
2018-08-16T14:07:28.940Z,2.92
2018-08-16T14:09:33.659Z,3.55
2018-08-16T14:11:40.800Z,3.17
2018-08-16T14:13:53.530Z,3.00
2018-08-16T14:15:57.915Z,3.00
2018-08-16T14:18:01.907Z,3.45
2018-08-16T14:20:07.025Z,3.45
2018-08-16T14:22:10.865Z,3.50
2018-08-16T14:24:15.674Z,3.00
2018-08-16T14:26:22.929Z,2.98
2018-08-16T14:28:29.344Z,2.70
2018-08-16T14:30:33.395Z,2.90
2018-08-16T14:32:37.851Z,3.00
2018-08-16T14:34:42.787Z,3.00
2018-08-16T14:36:47.491Z,2.90
2018-08-16T14:38:52.981Z,3.05
2018-08-16T14:40:57.607Z,2.83
2018-08-16T14:43:01.408Z,3.10
2018-08-16T14:45:06.742Z,3.40
2018-08-16T14:47:10.678Z,3.20
2018-08-16T14:49:15.365Z,3.00
2018-08-16T14:51:20.515Z,3.33
2018-08-16T14:53:25.326Z,3.67
2018-08-16T14:55:29.405Z,3.12
2018-08-16T14:57:35.412Z,3.83
2018-08-16T14:59:42.358Z,3.27
2018-08-16T15:01:46.431Z,3.00
2018-08-16T15:03:50.639Z,3.20
2018-08-16T15:05:56.213Z,3.27
2018-08-16T15:08:01.193Z,3.30
2018-08-16T15:10:06.575Z,3.45
2018-08-16T15:12:11.116Z,2.90
2018-08-16T15:14:16.979Z,3.15
2018-08-16T15:16:20.924Z,3.08
2018-08-16T15:18:25.569Z,2.95
2018-08-16T15:20:29.691Z,2.85
2018-08-16T15:22:33.662Z,2.98
2018-08-16T15:24:37.516Z,2.90
2018-08-16T15:26:42.224Z,3.30
2018-08-16T15:28:47.296Z,3.52
2018-08-16T15:30:53.165Z,2.90
2018-08-16T15:32:58.308Z,3.37
2018-08-16T15:35:03.392Z,2.87
2018-08-16T15:37:08.218Z,2.92
2018-08-16T15:39:16.398Z,2.98
2018-08-16T15:41:22.394Z,2.80
2018-08-16T15:43:26.986Z,3.02
2018-08-16T15:45:31.195Z,2.90
2018-08-16T15:47:35.125Z,3.12
2018-08-16T15:49:39.620Z,2.95
2018-08-16T15:51:47.677Z,2.80
2018-08-16T15:53:52.368Z,3.55
2018-08-16T15:55:56.313Z,3.10
2018-08-16T15:58:00.492Z,3.17
2018-08-16T16:00:04.986Z,2.67
2018-08-16T16:02:09.403Z,2.98
2018-08-16T16:04:13.218Z,3.12
2018-08-16T16:06:17.261Z,3.02
2018-08-16T16:08:21.144Z,3.27
2018-08-16T16:10:30.694Z,3.30
2018-08-16T16:12:37.773Z,2.90
2018-08-16T16:14:47.060Z,2.70
2018-08-16T16:16:53.623Z,2.62
2018-08-16T16:19:02.350Z,2.60
2018-08-16T16:21:09.447Z,2.67
2018-08-16T16:23:20.146Z,2.75
2018-08-16T16:25:26.342Z,3.33
2018-08-16T16:27:34.349Z,2.87
2018-08-16T16:29:52.103Z,3.40
2018-08-16T16:31:58.531Z,3.17
2018-08-16T16:34:06.012Z,2.90
2018-08-16T16:36:15.470Z,3.15
2018-08-16T16:38:20.334Z,2.27
2018-08-16T16:40:34.101Z,2.50
2018-08-16T16:42:43.694Z,2.60
2018-08-16T16:44:52.808Z,2.90
2018-08-16T16:46:57.957Z,2.95
2018-08-16T16:49:07.789Z,2.98
2018-08-16T16:51:12.230Z,2.50
2018-08-16T16:53:21.031Z,2.52
2018-08-16T16:55:28.817Z,2.87
2018-08-16T16:57:37.299Z,2.80
2018-08-16T17:02:40.998Z,2.98
2018-08-16T17:04:58.496Z,3.10
2018-08-16T17:07:10.741Z,2.83
2018-08-16T17:09:22.080Z,2.60
2018-08-16T17:11:30.445Z,2.85
2018-08-16T17:13:39.761Z,3.10
2018-08-16T17:15:50.068Z,2.98
2018-08-16T17:17:56.721Z,3.20
2018-08-16T17:20:03.016Z,3.12
2018-08-16T17:22:15.200Z,3.12
2018-08-16T17:24:24.534Z,2.90
2018-08-16T17:26:30.632Z,2.95
2018-08-16T17:28:37.953Z,3.08
2018-08-16T17:30:44.573Z,3.00
2018-08-16T17:32:50.807Z,3.27
2018-08-16T17:34:56.631Z,3.10
2018-08-16T17:41:57.077Z,3.15
2018-08-16T17:44:03.799Z,3.70
2018-08-16T17:46:09.218Z,3.30
2018-08-16T17:48:14.793Z,3.22
2018-08-16T17:50:18.699Z,3.17
2018-08-16T17:52:24.268Z,3.20
2018-08-16T17:54:28.168Z,2.95
2018-08-16T17:56:33.208Z,3.25
2018-08-16T17:58:38.555Z,3.25
2018-08-16T18:00:42.454Z,3.02
2018-08-16T18:02:47.365Z,3.15
2018-08-16T18:04:59.363Z,3.15
2018-08-16T18:07:07.099Z,3.30
2018-08-16T18:09:14.835Z,3.35
2018-08-16T18:11:25.920Z,3.33
2018-08-16T18:13:31.781Z,3.22
2018-08-16T18:15:40.863Z,3.52
2018-08-16T18:17:48.692Z,3.00
2018-08-16T18:19:52.583Z,3.70
2018-08-16T18:21:57.368Z,3.67
2018-08-16T18:24:04.641Z,3.50
2018-08-16T18:26:10.026Z,3.98
2018-08-16T18:28:18.449Z,3.15
2018-08-16T18:30:28.452Z,3.17
2018-08-16T18:32:33.377Z,3.17
2018-08-16T18:36:54.337Z,3.80
2018-08-16T18:39:00.182Z,3.58
2018-08-16T18:41:12.618Z,3.50
2018-08-16T18:43:17.231Z,4.22
2018-08-16T18:45:24.608Z,4.08
2018-08-16T18:47:36.760Z,3.98
2018-08-16T18:49:47.265Z,4.08
2018-08-16T18:51:51.801Z,3.65
2018-08-16T18:53:57.268Z,4.05
2018-08-16T18:56:04.242Z,3.85
2018-08-16T18:58:09.541Z,3.90
2018-08-16T19:00:17.396Z,3.92
2018-08-16T19:02:23.330Z,3.30
2018-08-16T19:04:30.971Z,3.70
2018-08-16T19:06:36.507Z,3.87
2018-08-16T19:08:42.052Z,3.70
2018-08-16T19:10:48.847Z,3.70
2018-08-16T19:12:53.530Z,3.60
2018-08-16T19:15:02.213Z,4.23
2018-08-16T19:17:07.938Z,3.57
2018-08-16T19:19:12.337Z,3.70
2018-08-16T19:21:19.417Z,4.00
2018-08-16T19:23:25.056Z,4.10
2018-08-16T19:25:30.313Z,3.60
2018-08-16T19:27:34.960Z,3.77
2018-08-16T19:29:41.006Z,3.80
2018-08-16T19:31:45.498Z,3.23
2018-08-16T19:33:49.532Z,4.00
2018-08-16T19:35:55.459Z,3.63
2018-08-16T19:38:02.597Z,3.63
2018-08-16T19:40:07.725Z,3.63
2018-08-16T19:42:11.790Z,3.93
2018-08-16T19:44:16.378Z,3.67
2018-08-16T19:46:23.013Z,3.87
2018-08-16T19:48:28.681Z,4.13
2018-08-16T19:50:34.502Z,4.00
2018-08-16T19:52:39.023Z,3.97
2018-08-16T19:54:42.854Z,3.40
2018-08-16T19:56:47.135Z,3.60
2018-08-16T19:58:52.298Z,3.60
2018-08-16T20:00:59.305Z,3.60
2018-08-16T20:03:05.276Z,3.93
2018-08-16T20:05:10.000Z,4.00
2018-08-16T20:07:15.664Z,4.07
2018-08-16T20:09:23.825Z,3.80
2018-08-16T20:11:34.383Z,3.60
2018-08-16T20:13:38.970Z,3.80
2018-08-16T20:15:43.461Z,3.63
2018-08-16T20:17:47.722Z,3.10
2018-08-16T20:19:56.468Z,3.80
2018-08-16T20:22:00.603Z,3.60
2018-08-16T20:24:05.321Z,3.27
2018-08-16T20:26:12.109Z,3.67
2018-08-16T20:28:16.350Z,3.53
2018-08-16T20:30:22.841Z,3.90
2018-08-16T20:32:26.757Z,4.07
2018-08-16T20:34:31.817Z,3.83
2018-08-16T20:36:38.869Z,3.87
2018-08-16T20:38:42.773Z,3.50
2018-08-16T20:40:46.728Z,3.87
2018-08-16T20:42:51.672Z,3.40
2018-08-16T20:44:56.279Z,3.33
2018-08-16T20:47:05.169Z,3.57
2018-08-16T20:49:10.648Z,3.37
2018-08-16T20:51:15.748Z,3.50
2018-08-16T20:53:20.571Z,3.57
2018-08-16T20:55:24.471Z,3.50
2018-08-16T20:57:32.228Z,3.03
2018-08-16T20:59:36.502Z,3.60
2018-08-16T21:01:42.617Z,3.57
2018-08-16T21:03:47.680Z,3.70
2018-08-16T21:05:53.667Z,3.43
2018-08-16T21:08:00.114Z,3.50
2018-08-16T21:10:07.973Z,3.43
2018-08-16T21:12:15.292Z,3.47
2018-08-16T21:14:22.212Z,3.77
2018-08-16T21:18:41.716Z,4.13
2018-08-16T21:20:46.403Z,3.80
2018-08-16T21:22:54.393Z,3.67
2018-08-16T21:25:01.270Z,3.93
2018-08-16T21:27:07.250Z,3.63
2018-08-16T21:29:17.814Z,3.77
2018-08-16T21:31:21.783Z,3.67
2018-08-16T21:33:27.243Z,3.87
2018-08-16T21:35:31.926Z,4.13
2018-08-16T21:37:36.152Z,4.20
2018-08-16T21:39:41.346Z,4.17
2018-08-16T21:41:55.798Z,4.10
2018-08-16T21:44:02.084Z,3.90
2018-08-16T21:46:07.517Z,4.23
2018-08-16T21:48:11.437Z,4.23
2018-08-16T21:50:17.591Z,4.07
2018-08-16T21:52:21.541Z,4.10
2018-08-16T21:54:27.077Z,3.90
2018-08-16T21:56:31.594Z,4.20
2018-08-16T21:58:36.494Z,4.07
2018-08-16T22:00:48.323Z,4.40
2018-08-16T22:02:53.247Z,3.80
2018-08-16T22:04:57.743Z,4.20
2018-08-16T22:07:14.186Z,4.57
2018-08-16T22:09:22.656Z,4.17
2018-08-16T22:11:29.344Z,4.53
2018-08-16T22:13:34.833Z,4.37
2018-08-16T22:15:43.992Z,4.27
2018-08-16T22:17:48.466Z,4.70
2018-08-16T22:19:56.209Z,3.90
2018-08-16T22:22:00.339Z,4.17
2018-08-16T22:24:04.309Z,4.33
2018-08-16T22:26:08.336Z,4.47
2018-08-16T22:28:12.532Z,4.57
2018-08-16T22:30:17.109Z,4.37
2018-08-16T22:32:21.770Z,4.70
2018-08-16T22:34:28.170Z,5.20
2018-08-16T22:36:32.974Z,5.10
2018-08-16T22:38:37.573Z,4.53
2018-08-16T22:40:43.741Z,4.10
2018-08-16T22:42:47.693Z,4.23
2018-08-16T22:44:51.527Z,4.60
2018-08-16T22:46:56.496Z,4.30
2018-08-16T22:49:01.591Z,4.10
2018-08-16T22:51:07.147Z,4.43
2018-08-16T22:53:11.388Z,4.07
2018-08-16T22:55:18.039Z,3.83
2018-08-16T22:57:22.537Z,4.17
2018-08-16T22:59:27.337Z,4.53
2018-08-16T23:01:32.795Z,4.30
2018-08-16T23:03:40.270Z,4.57
2018-08-16T23:05:45.438Z,3.60
2018-08-16T23:07:52.317Z,4.40
2018-08-16T23:09:56.911Z,4.60
2018-08-16T23:12:02.050Z,4.20
2018-08-16T23:14:09.211Z,3.90
2018-08-16T23:16:13.098Z,4.00
2018-08-16T23:18:17.390Z,3.83
2018-08-16T23:20:21.275Z,4.60
2018-08-16T23:22:25.138Z,4.80
2018-08-16T23:24:29.848Z,4.50
2018-08-16T23:26:49.659Z,4.70
2018-08-16T23:28:54.394Z,4.27
2018-08-16T23:31:06.964Z,4.23
2018-08-16T23:33:12.696Z,4.40
2018-08-16T23:35:18.187Z,4.20
2018-08-16T23:37:24.269Z,4.43
2018-08-16T23:39:28.079Z,3.80
2018-08-16T23:41:32.764Z,4.23
2018-08-16T23:43:36.921Z,4.33
2018-08-16T23:45:41.264Z,4.00
2018-08-16T23:47:55.668Z,3.83
2018-08-16T23:50:00.789Z,4.10
2018-08-16T23:52:05.331Z,4.17
2018-08-16T23:54:10.898Z,4.10
2018-08-16T23:56:15.092Z,4.10
2018-08-16T23:58:20.319Z,4.30
